sensor_id;sensor_type;location;lat;lon;timestamp;pressure;altitude;pressure_sealevel;temperature
59339;BMP280;45117;50.960;5.500;2023-04-24T00:01:49;99257.47;;;9.35
59339;BMP280;45117;50.960;5.500;2023-04-24T00:04:18;99262.06;;;9.35
59339;BMP280;45117;50.960;5.500;2023-04-24T00:06:44;99262.94;;;9.32
59339;BMP280;45117;50.960;5.500;2023-04-24T00:09:14;99267.53;;;9.31
59339;BMP280;45117;50.960;5.500;2023-04-24T00:11:41;99261.44;;;9.31
59339;BMP280;45117;50.960;5.500;2023-04-24T00:14:07;99258.31;;;9.32
59339;BMP280;45117;50.960;5.500;2023-04-24T00:16:34;99269.09;;;9.29
59339;BMP280;45117;50.960;5.500;2023-04-24T00:19:00;99258.41;;;9.29
59339;BMP280;45117;50.960;5.500;2023-04-24T00:21:28;99271.78;;;9.29
59339;BMP280;45117;50.960;5.500;2023-04-24T00:23:55;99282.50;;;9.29
59339;BMP280;45117;50.960;5.500;2023-04-24T00:26:21;99275.28;;;9.25
59339;BMP280;45117;50.960;5.500;2023-04-24T00:28:48;99275.28;;;9.25
59339;BMP280;45117;50.960;5.500;2023-04-24T00:31:14;99277.97;;;9.25
59339;BMP280;45117;50.960;5.500;2023-04-24T00:33:41;99279.16;;;9.24
59339;BMP280;45117;50.960;5.500;2023-04-24T00:36:07;99276.47;;;9.24
59339;BMP280;45117;50.960;5.500;2023-04-24T00:38:35;99279.16;;;9.24
59339;BMP280;45117;50.960;5.500;2023-04-24T00:41:02;99277.97;;;9.25
59339;BMP280;45117;50.960;5.500;2023-04-24T00:43:28;99273.06;;;9.24
59339;BMP280;45117;50.960;5.500;2023-04-24T00:45:55;99273.78;;;9.24
59339;BMP280;45117;50.960;5.500;2023-04-24T00:48:23;99272.22;;;9.27
59339;BMP280;45117;50.960;5.500;2023-04-24T00:50:50;99269.28;;;9.21
59339;BMP280;45117;50.960;5.500;2023-04-24T00:53:16;99268.53;;;9.21
59339;BMP280;45117;50.960;5.500;2023-04-24T00:55:44;99268.53;;;9.21
59339;BMP280;45117;50.960;5.500;2023-04-24T00:58:11;99282.34;;;9.19
59339;BMP280;45117;50.960;5.500;2023-04-24T01:00:37;99271.56;;;9.23
59339;BMP280;45117;50.960;5.500;2023-04-24T01:03:04;99275.06;;;9.20
59339;BMP280;45117;50.960;5.500;2023-04-24T01:05:32;99267.78;;;9.20
59339;BMP280;45117;50.960;5.500;2023-04-24T01:07:59;99278.50;;;9.20
59339;BMP280;45117;50.960;5.500;2023-04-24T01:10:27;99279.66;;;9.19
59339;BMP280;45117;50.960;5.500;2023-04-24T01:12:56;99278.50;;;9.20
59339;BMP280;45117;50.960;5.500;2023-04-24T01:15:23;99277.00;;;9.19
59339;BMP280;45117;50.960;5.500;2023-04-24T01:17:49;99273.56;;;9.19
59339;BMP280;45117;50.960;5.500;2023-04-24T01:20:17;99274.75;;;9.18
59339;BMP280;45117;50.960;5.500;2023-04-24T01:22:45;99270.13;;;9.18
59339;BMP280;45117;50.960;5.500;2023-04-24T01:25:12;99269.78;;;9.16
59339;BMP280;45117;50.960;5.500;2023-04-24T01:27:38;99271.72;;;9.16
59339;BMP280;45117;50.960;5.500;2023-04-24T01:30:06;99273.34;;;9.13
59339;BMP280;45117;50.960;5.500;2023-04-24T01:32:33;99274.84;;;9.14
59339;BMP280;45117;50.960;5.500;2023-04-24T01:35:01;99265.97;;;9.01
59339;BMP280;45117;50.960;5.500;2023-04-24T01:37:27;99270.97;;;9.15
59339;BMP280;45117;50.960;5.500;2023-04-24T01:39:56;99274.09;;;9.14
59339;BMP280;45117;50.960;5.500;2023-04-24T01:42:22;99274.09;;;9.14
59339;BMP280;45117;50.960;5.500;2023-04-24T01:44:49;99276.78;;;9.14
59339;BMP280;45117;50.960;5.500;2023-04-24T01:47:16;99267.22;;;9.13
59339;BMP280;45117;50.960;5.500;2023-04-24T01:49:43;99261.19;;;9.09
59339;BMP280;45117;50.960;5.500;2023-04-24T01:52:09;99265.72;;;9.12
59339;BMP280;45117;50.960;5.500;2023-04-24T01:54:36;99269.56;;;9.11
59339;BMP280;45117;50.960;5.500;2023-04-24T01:57:04;99260.78;;;9.10
59339;BMP280;45117;50.960;5.500;2023-04-24T01:59:32;99263.53;;;9.07
59339;BMP280;45117;50.960;5.500;2023-04-24T02:01:59;99263.47;;;9.10
59339;BMP280;45117;50.960;5.500;2023-04-24T02:04:25;99278.03;;;9.09
59339;BMP280;45117;50.960;5.500;2023-04-24T02:06:52;99267.31;;;9.09
59339;BMP280;45117;50.960;5.500;2023-04-24T02:09:18;99267.31;;;9.09
59339;BMP280;45117;50.960;5.500;2023-04-24T02:11:45;99268.88;;;9.07
59339;BMP280;45117;50.960;5.500;2023-04-24T02:14:13;99272.00;;;9.05
59339;BMP280;45117;50.960;5.500;2023-04-24T02:16:39;99269.72;;;9.04
59339;BMP280;45117;50.960;5.500;2023-04-24T02:19:06;99270.47;;;9.04
59339;BMP280;45117;50.960;5.500;2023-04-24T02:21:33;99277.44;;;9.02
59339;BMP280;45117;50.960;5.500;2023-04-24T02:23:59;99281.03;;;8.95
59339;BMP280;45117;50.960;5.500;2023-04-24T02:26:26;99274.66;;;8.89
59339;BMP280;45117;50.960;5.500;2023-04-24T02:28:52;99277.84;;;8.84
59339;BMP280;45117;50.960;5.500;2023-04-24T02:31:20;99276.34;;;8.83
59339;BMP280;45117;50.960;5.500;2023-04-24T02:33:47;99275.66;;;8.79
59339;BMP280;45117;50.960;5.500;2023-04-24T02:36:13;99264.63;;;8.77
59339;BMP280;45117;50.960;5.500;2023-04-24T02:38:40;99269.66;;;8.75
59339;BMP280;45117;50.960;5.500;2023-04-24T02:41:06;99262.78;;;8.74
59339;BMP280;45117;50.960;5.500;2023-04-24T02:43:33;99279.66;;;8.71
59339;BMP280;45117;50.960;5.500;2023-04-24T02:45:59;99268.22;;;8.70
59339;BMP280;45117;50.960;5.500;2023-04-24T02:48:27;99268.97;;;8.71
59339;BMP280;45117;50.960;5.500;2023-04-24T02:50:54;99268.22;;;8.70
59339;BMP280;45117;50.960;5.500;2023-04-24T02:53:20;99266.81;;;8.65
59339;BMP280;45117;50.960;5.500;2023-04-24T02:55:47;99267.22;;;8.64
59339;BMP280;45117;50.960;5.500;2023-04-24T02:58:14;99271.88;;;8.60
59339;BMP280;45117;50.960;5.500;2023-04-24T03:00:41;99278.81;;;8.57
59339;BMP280;45117;50.960;5.500;2023-04-24T03:03:08;99276.66;;;8.52
59339;BMP280;45117;50.960;5.500;2023-04-24T03:05:36;99273.97;;;8.52
59339;BMP280;45117;50.960;5.500;2023-04-24T03:08:03;99272.84;;;8.50
59339;BMP280;45117;50.960;5.500;2023-04-24T03:10:30;99270.94;;;8.50
59339;BMP280;45117;50.960;5.500;2023-04-24T03:12:57;99270.19;;;8.50
59339;BMP280;45117;50.960;5.500;2023-04-24T03:15:23;99271.78;;;8.47
59339;BMP280;45117;50.960;5.500;2023-04-24T03:17:50;99275.63;;;8.46
59339;BMP280;45117;50.960;5.500;2023-04-24T03:20:17;99276.03;;;8.45
59339;BMP280;45117;50.960;5.500;2023-04-24T03:22:45;99280.56;;;8.48
59339;BMP280;45117;50.960;5.500;2023-04-24T03:25:11;99286.00;;;8.44
59339;BMP280;45117;50.960;5.500;2023-04-24T03:27:38;99289.00;;;8.46
59339;BMP280;45117;50.960;5.500;2023-04-24T03:30:06;99290.66;;;8.40
59339;BMP280;45117;50.960;5.500;2023-04-24T03:32:33;99293.31;;;8.40
59339;BMP280;45117;50.960;5.500;2023-04-24T03:34:59;99292.16;;;8.41
59339;BMP280;45117;50.960;5.500;2023-04-24T03:37:26;99292.56;;;8.39
59339;BMP280;45117;50.960;5.500;2023-04-24T03:39:54;99292.63;;;8.36
59339;BMP280;45117;50.960;5.500;2023-04-24T03:42:20;99291.97;;;8.32
59339;BMP280;45117;50.960;5.500;2023-04-24T03:44:47;99277.84;;;8.31
59339;BMP280;45117;50.960;5.500;2023-04-24T03:47:13;99283.63;;;8.30
59339;BMP280;45117;50.960;5.500;2023-04-24T03:49:40;99286.63;;;8.32
59339;BMP280;45117;50.960;5.500;2023-04-24T03:52:06;99290.53;;;8.27
59339;BMP280;45117;50.960;5.500;2023-04-24T03:54:33;99284.44;;;8.27
59339;BMP280;45117;50.960;5.500;2023-04-24T03:57:01;99289.78;;;8.27
59339;BMP280;45117;50.960;5.500;2023-04-24T03:59:28;99287.84;;;8.27
59339;BMP280;45117;50.960;5.500;2023-04-24T04:01:55;99293.63;;;8.26
59339;BMP280;45117;50.960;5.500;2023-04-24T04:04:21;99300.03;;;8.28
59339;BMP280;45117;50.960;5.500;2023-04-24T04:06:48;99289.78;;;8.27
59339;BMP280;45117;50.960;5.500;2023-04-24T04:09:14;99292.88;;;8.25
59339;BMP280;45117;50.960;5.500;2023-04-24T04:11:41;99292.09;;;8.25
59339;BMP280;45117;50.960;5.500;2023-04-24T04:14:09;99294.38;;;8.26
59339;BMP280;45117;50.960;5.500;2023-04-24T04:16:35;99289.03;;;8.26
59339;BMP280;45117;50.960;5.500;2023-04-24T04:19:02;99298.63;;;8.24
59339;BMP280;45117;50.960;5.500;2023-04-24T04:21:29;99289.53;;;8.21
59339;BMP280;45117;50.960;5.500;2023-04-24T04:23:56;99303.63;;;8.22
59339;BMP280;45117;50.960;5.500;2023-04-24T04:26:22;99294.88;;;8.21
59339;BMP280;45117;50.960;5.500;2023-04-24T04:28:50;99302.06;;;8.24
59339;BMP280;45117;50.960;5.500;2023-04-24T04:31:18;99308.22;;;8.21
59339;BMP280;45117;50.960;5.500;2023-04-24T04:33:45;99302.09;;;8.21
59339;BMP280;45117;50.960;5.500;2023-04-24T04:36:11;99307.13;;;8.19
59339;BMP280;45117;50.960;5.500;2023-04-24T04:38:38;99312.09;;;8.17
59339;BMP280;45117;50.960;5.500;2023-04-24T04:41:05;99306.44;;;8.14
59339;BMP280;45117;50.960;5.500;2023-04-24T04:43:32;99317.94;;;8.11
59339;BMP280;45117;50.960;5.500;2023-04-24T04:45:59;99317.19;;;8.11
59339;BMP280;45117;50.960;5.500;2023-04-24T04:48:29;99319.91;;;8.07
59339;BMP280;45117;50.960;5.500;2023-04-24T04:50:56;99324.13;;;8.08
59339;BMP280;45117;50.960;5.500;2023-04-24T04:53:23;99328.28;;;8.09
59339;BMP280;45117;50.960;5.500;2023-04-24T04:55:49;99321.59;;;8.01
59339;BMP280;45117;50.960;5.500;2023-04-24T04:58:16;99332.63;;;8.03
59339;BMP280;45117;50.960;5.500;2023-04-24T05:00:42;99324.94;;;8.05
59339;BMP280;45117;50.960;5.500;2023-04-24T05:03:09;99333.03;;;8.02
59339;BMP280;45117;50.960;5.500;2023-04-24T05:05:37;99319.25;;;8.03
59339;BMP280;45117;50.960;5.500;2023-04-24T05:08:06;99328.44;;;8.02
59339;BMP280;45117;50.960;5.500;2023-04-24T05:10:32;99324.66;;;8.00
59339;BMP280;45117;50.960;5.500;2023-04-24T05:12:59;99337.25;;;7.99
59339;BMP280;45117;50.960;5.500;2023-04-24T05:15:26;99341.09;;;7.98
59339;BMP280;45117;50.960;5.500;2023-04-24T05:17:52;99349.84;;;7.99
59339;BMP280;45117;50.960;5.500;2023-04-24T05:20:19;99360.91;;;8.01
59339;BMP280;45117;50.960;5.500;2023-04-24T05:22:47;99369.94;;;8.07
59339;BMP280;45117;50.960;5.500;2023-04-24T05:25:13;99370.28;;;8.09
59339;BMP280;45117;50.960;5.500;2023-04-24T05:27:40;99371.84;;;8.06
59339;BMP280;45117;50.960;5.500;2023-04-24T05:30:07;99376.78;;;8.08
59339;BMP280;45117;50.960;5.500;2023-04-24T05:32:34;99383.28;;;8.07
59339;BMP280;45117;50.960;5.500;2023-04-24T05:35:01;99382.53;;;8.06
59339;BMP280;45117;50.960;5.500;2023-04-24T05:37:27;99393.59;;;8.08
59339;BMP280;45117;50.960;5.500;2023-04-24T05:39:55;99396.59;;;8.10
59339;BMP280;45117;50.960;5.500;2023-04-24T05:42:22;99400.84;;;8.08
59339;BMP280;45117;50.960;5.500;2023-04-24T05:44:48;99408.09;;;8.07
59339;BMP280;45117;50.960;5.500;2023-04-24T05:47:15;99412.31;;;8.08
59339;BMP280;45117;50.960;5.500;2023-04-24T05:49:41;99418.78;;;8.07
59339;BMP280;45117;50.960;5.500;2023-04-24T05:52:08;99413.84;;;8.06
59339;BMP280;45117;50.960;5.500;2023-04-24T05:54:34;99417.28;;;8.06
59339;BMP280;45117;50.960;5.500;2023-04-24T05:57:02;99429.88;;;8.06
59339;BMP280;45117;50.960;5.500;2023-04-24T05:59:32;99429.13;;;8.05
59339;BMP280;45117;50.960;5.500;2023-04-24T06:01:59;99427.28;;;8.02
59339;BMP280;45117;50.960;5.500;2023-04-24T06:04:25;99437.97;;;8.02
59339;BMP280;45117;50.960;5.500;2023-04-24T06:06:52;99441.06;;;8.01
59339;BMP280;45117;50.960;5.500;2023-04-24T06:09:21;99446.44;;;7.97
59339;BMP280;45117;50.960;5.500;2023-04-24T06:11:47;99450.28;;;7.96
59339;BMP280;45117;50.960;5.500;2023-04-24T06:14:15;99457.47;;;7.99
59339;BMP280;45117;50.960;5.500;2023-04-24T06:16:42;99468.56;;;7.98
59339;BMP280;45117;50.960;5.500;2023-04-24T06:19:08;99465.56;;;7.96
59339;BMP280;45117;50.960;5.500;2023-04-24T06:21:35;99464.91;;;7.88
59339;BMP280;45117;50.960;5.500;2023-04-24T06:24:02;99477.91;;;7.86
59339;BMP280;45117;50.960;5.500;2023-04-24T06:26:29;99485.91;;;7.86
59339;BMP280;45117;50.960;5.500;2023-04-24T06:28:57;99496.31;;;7.80
59339;BMP280;45117;50.960;5.500;2023-04-24T06:31:26;99487.19;;;7.78
59339;BMP280;45117;50.960;5.500;2023-04-24T06:33:53;99497.50;;;7.79
59339;BMP280;45117;50.960;5.500;2023-04-24T06:36:19;99505.13;;;7.77
59339;BMP280;45117;50.960;5.500;2023-04-24T06:38:46;99511.22;;;7.78
59339;BMP280;45117;50.960;5.500;2023-04-24T06:41:12;99526.13;;;7.79
59339;BMP280;45117;50.960;5.500;2023-04-24T06:43:39;99521.16;;;7.77
59339;BMP280;45117;50.960;5.500;2023-04-24T06:46:05;99534.47;;;7.81
59339;BMP280;45117;50.960;5.500;2023-04-24T06:48:33;99536.31;;;7.84
59339;BMP280;45117;50.960;5.500;2023-04-24T06:50:59;99543.28;;;7.78
59339;BMP280;45117;50.960;5.500;2023-04-24T06:53:26;99539.00;;;7.84
59339;BMP280;45117;50.960;5.500;2023-04-24T06:55:52;99548.59;;;7.81
59339;BMP280;45117;50.960;5.500;2023-04-24T06:58:20;99551.66;;;7.80
59339;BMP280;45117;50.960;5.500;2023-04-24T07:00:46;99552.81;;;7.79
59339;BMP280;45117;50.960;5.500;2023-04-24T07:03:13;99557.00;;;7.80
59339;BMP280;45117;50.960;5.500;2023-04-24T07:05:40;99557.03;;;7.76
59339;BMP280;45117;50.960;5.500;2023-04-24T07:08:07;99566.94;;;7.79
59339;BMP280;45117;50.960;5.500;2023-04-24T07:10:36;99568.06;;;7.78
59339;BMP280;45117;50.960;5.500;2023-04-24T07:13:03;99568.00;;;7.82
59339;BMP280;45117;50.960;5.500;2023-04-24T07:15:29;99578.69;;;7.82
59339;BMP280;45117;50.960;5.500;2023-04-24T07:17:57;99580.28;;;7.79
59339;BMP280;45117;50.960;5.500;2023-04-24T07:20:23;99586.31;;;7.83
59339;BMP280;45117;50.960;5.500;2023-04-24T07:22:51;99597.72;;;7.88
59339;BMP280;45117;50.960;5.500;2023-04-24T07:25:19;99590.34;;;7.95
59339;BMP280;45117;50.960;5.500;2023-04-24T07:27:45;99601.16;;;7.88
59339;BMP280;45117;50.960;5.500;2023-04-24T07:30:12;99602.28;;;7.87
59339;BMP280;45117;50.960;5.500;2023-04-24T07:32:38;99614.47;;;7.92
59339;BMP280;45117;50.960;5.500;2023-04-24T07:35:06;99625.16;;;7.92
59339;BMP280;45117;50.960;5.500;2023-04-24T07:37:32;99620.28;;;7.83
59339;BMP280;45117;50.960;5.500;2023-04-24T07:40:00;99619.13;;;7.84
59339;BMP280;45117;50.960;5.500;2023-04-24T07:42:27;99619.13;;;7.84
59339;BMP280;45117;50.960;5.500;2023-04-24T07:44:55;99627.47;;;7.86
59339;BMP280;45117;50.960;5.500;2023-04-24T07:47:22;99633.22;;;7.88
59339;BMP280;45117;50.960;5.500;2023-04-24T07:49:48;99635.13;;;7.88
59339;BMP280;45117;50.960;5.500;2023-04-24T07:52:15;99642.31;;;7.91
59339;BMP280;45117;50.960;5.500;2023-04-24T07:54:41;99646.16;;;7.90
59339;BMP280;45117;50.960;5.500;2023-04-24T07:57:10;99655.34;;;7.89
59339;BMP280;45117;50.960;5.500;2023-04-24T07:59:36;99647.69;;;7.87
59339;BMP280;45117;50.960;5.500;2023-04-24T08:02:03;99659.53;;;7.86
59339;BMP280;45117;50.960;5.500;2023-04-24T08:04:31;99670.63;;;7.84
59339;BMP280;45117;50.960;5.500;2023-04-24T08:06:57;99670.63;;;7.84
59339;BMP280;45117;50.960;5.500;2023-04-24T08:09:24;99673.00;;;7.79
59339;BMP280;45117;50.960;5.500;2023-04-24T08:11:51;99675.31;;;7.77
59339;BMP280;45117;50.960;5.500;2023-04-24T08:14:19;99678.34;;;7.79
59339;BMP280;45117;50.960;5.500;2023-04-24T08:16:46;99683.69;;;7.79
59339;BMP280;45117;50.960;5.500;2023-04-24T08:19:13;99685.97;;;7.80
59339;BMP280;45117;50.960;5.500;2023-04-24T08:21:39;99691.63;;;7.82
59339;BMP280;45117;50.960;5.500;2023-04-24T08:24:06;99691.97;;;7.88
59339;BMP280;45117;50.960;5.500;2023-04-24T08:26:33;99685.38;;;7.96
59339;BMP280;45117;50.960;5.500;2023-04-24T08:29:00;99698.47;;;8.18
59339;BMP280;45117;50.960;5.500;2023-04-24T08:31:28;99707.44;;;8.31
59339;BMP280;45117;50.960;5.500;2023-04-24T08:33:54;99709.25;;;8.37
59339;BMP280;45117;50.960;5.500;2023-04-24T08:36:21;99724.75;;;8.50
59339;BMP280;45117;50.960;5.500;2023-04-24T08:38:47;99735.31;;;8.60
59339;BMP280;45117;50.960;5.500;2023-04-24T08:41:14;99737.25;;;8.56
59339;BMP280;45117;50.960;5.500;2023-04-24T08:43:41;99742.44;;;8.67
59339;BMP280;45117;50.960;5.500;2023-04-24T08:46:08;99748.16;;;8.69
59339;BMP280;45117;50.960;5.500;2023-04-24T08:48:38;99755.34;;;8.76
59339;BMP280;45117;50.960;5.500;2023-04-24T08:51:05;99754.47;;;8.82
59339;BMP280;45117;50.960;5.500;2023-04-24T08:53:33;99752.72;;;8.72
59339;BMP280;45117;50.960;5.500;2023-04-24T08:56:00;99763.28;;;8.79
59339;BMP280;45117;50.960;5.500;2023-04-24T08:58:28;99770.19;;;9.04
59339;BMP280;45117;50.960;5.500;2023-04-24T09:00:55;99771.97;;;9.14
59339;BMP280;45117;50.960;5.500;2023-04-24T09:03:22;99761.47;;;9.23
59339;BMP280;45117;50.960;5.500;2023-04-24T09:05:51;99767.31;;;9.61
59339;BMP280;45117;50.960;5.500;2023-04-24T09:08:20;99775.00;;;9.99
59339;BMP280;45117;50.960;5.500;2023-04-24T09:10:48;99775.59;;;10.43
59339;BMP280;45117;50.960;5.500;2023-04-24T09:13:14;99771.97;;;10.69
59339;BMP280;45117;50.960;5.500;2023-04-24T09:15:42;99774.41;;;10.80
59339;BMP280;45117;50.960;5.500;2023-04-24T09:18:09;99769.09;;;10.60
59339;BMP280;45117;50.960;5.500;2023-04-24T09:21:00;99781.34;;;10.93
59339;BMP280;45117;50.960;5.500;2023-04-24T09:23:28;99784.44;;;10.92
59339;BMP280;45117;50.960;5.500;2023-04-24T09:25:55;99790.06;;;10.65
59339;BMP280;45117;50.960;5.500;2023-04-24T09:28:26;99791.25;;;10.64
59339;BMP280;45117;50.960;5.500;2023-04-24T09:31:03;99790.50;;;10.27
59339;BMP280;45117;50.960;5.500;2023-04-24T09:33:29;99804.53;;;10.15
59339;BMP280;45117;50.960;5.500;2023-04-24T09:35:56;99807.75;;;10.26
59339;BMP280;45117;50.960;5.500;2023-04-24T09:38:32;99818.38;;;10.14
59339;BMP280;45117;50.960;5.500;2023-04-24T09:41:00;99822.41;;;10.22
59339;BMP280;45117;50.960;5.500;2023-04-24T09:43:27;99817.88;;;9.99
59339;BMP280;45117;50.960;5.500;2023-04-24T09:45:55;99835.75;;;10.25
59339;BMP280;45117;50.960;5.500;2023-04-24T09:48:30;99844.78;;;10.51
59339;BMP280;45117;50.960;5.500;2023-04-24T09:50:57;99830.56;;;10.54
59339;BMP280;45117;50.960;5.500;2023-04-24T09:53:24;99830.25;;;10.85
59339;BMP280;45117;50.960;5.500;2023-04-24T09:55:52;99840.00;;;11.73
59339;BMP280;45117;50.960;5.500;2023-04-24T09:58:24;99845.81;;;12.13
59339;BMP280;45117;50.960;5.500;2023-04-24T10:00:53;99846.56;;;12.14
59339;BMP280;45117;50.960;5.500;2023-04-24T10:03:24;99841.00;;;12.21
59339;BMP280;45117;50.960;5.500;2023-04-24T10:05:53;99844.25;;;11.87
59339;BMP280;45117;50.960;5.500;2023-04-24T10:08:20;99843.75;;;11.75
59339;BMP280;45117;50.960;5.500;2023-04-24T10:10:46;99842.19;;;11.91
59339;BMP280;45117;50.960;5.500;2023-04-24T10:13:14;99852.81;;;12.23
59339;BMP280;45117;50.960;5.500;2023-04-24T10:15:41;99850.88;;;12.24
59339;BMP280;45117;50.960;5.500;2023-04-24T10:18:10;99845.75;;;12.42
59339;BMP280;45117;50.960;5.500;2023-04-24T10:20:38;99849.38;;;12.61
59339;BMP280;45117;50.960;5.500;2023-04-24T10:23:05;99847.56;;;12.83
59339;BMP280;45117;50.960;5.500;2023-04-24T10:25:34;99857.88;;;13.45
59339;BMP280;45117;50.960;5.500;2023-04-24T10:28:01;99854.06;;;13.55
59339;BMP280;45117;50.960;5.500;2023-04-24T10:30:30;99851.41;;;12.95
59339;BMP280;45117;50.960;5.500;2023-04-24T10:33:00;99862.19;;;12.31
59339;BMP280;45117;50.960;5.500;2023-04-24T10:35:26;99868.47;;;11.99
59339;BMP280;45117;50.960;5.500;2023-04-24T10:37:59;99870.91;;;11.65
59339;BMP280;45117;50.960;5.500;2023-04-24T10:40:27;99862.88;;;11.48
59339;BMP280;45117;50.960;5.500;2023-04-24T10:42:56;99875.97;;;11.63
59339;BMP280;45117;50.960;5.500;2023-04-24T10:45:24;99888.78;;;11.42
59339;BMP280;45117;50.960;5.500;2023-04-24T10:47:53;99880.94;;;11.32
59339;BMP280;45117;50.960;5.500;2023-04-24T10:50:20;99888.41;;;11.57
59339;BMP280;45117;50.960;5.500;2023-04-24T10:52:47;99891.13;;;12.15
59339;BMP280;45117;50.960;5.500;2023-04-24T10:55:16;99901.16;;;12.40
59339;BMP280;45117;50.960;5.500;2023-04-24T10:58:01;99896.34;;;12.05
59339;BMP280;45117;50.960;5.500;2023-04-24T11:00:27;99897.81;;;12.23
59339;BMP280;45117;50.960;5.500;2023-04-24T11:02:56;99905.69;;;12.30
59339;BMP280;45117;50.960;5.500;2023-04-24T11:05:49;99902.06;;;12.07
59339;BMP280;45117;50.960;5.500;2023-04-24T11:08:22;99900.53;;;11.77
59339;BMP280;45117;50.960;5.500;2023-04-24T11:10:55;99907.53;;;11.59
59339;BMP280;45117;50.960;5.500;2023-04-24T11:13:24;99909.50;;;11.42
59339;BMP280;45117;50.960;5.500;2023-04-24T11:16:13;99912.44;;;11.31
59339;BMP280;45117;50.960;5.500;2023-04-24T11:18:42;99907.88;;;11.61
59339;BMP280;45117;50.960;5.500;2023-04-24T11:21:11;99910.41;;;11.97
59339;BMP280;45117;50.960;5.500;2023-04-24T11:23:38;99912.84;;;11.78
59339;BMP280;45117;50.960;5.500;2023-04-24T11:26:11;99913.38;;;11.57
59339;BMP280;45117;50.960;5.500;2023-04-24T11:28:44;99917.88;;;11.60
59339;BMP280;45117;50.960;5.500;2023-04-24T11:31:36;99924.38;;;11.46
59339;BMP280;45117;50.960;5.500;2023-04-24T11:34:12;99932.19;;;11.41
59339;BMP280;45117;50.960;5.500;2023-04-24T11:36:40;99935.47;;;11.32
59339;BMP280;45117;50.960;5.500;2023-04-24T11:39:08;99933.44;;;11.20
59339;BMP280;45117;50.960;5.500;2023-04-24T11:41:36;99934.44;;;11.42
59339;BMP280;45117;50.960;5.500;2023-04-24T11:44:04;99941.44;;;12.01
59339;BMP280;45117;50.960;5.500;2023-04-24T11:46:32;99938.56;;;12.50
59339;BMP280;45117;50.960;5.500;2023-04-24T11:48:59;99942.78;;;12.51
59339;BMP280;45117;50.960;5.500;2023-04-24T11:51:27;99942.38;;;12.24
59339;BMP280;45117;50.960;5.500;2023-04-24T11:53:54;99947.66;;;12.27
59339;BMP280;45117;50.960;5.500;2023-04-24T11:56:21;99946.44;;;12.16
59339;BMP280;45117;50.960;5.500;2023-04-24T11:58:48;99953.13;;;12.24
59339;BMP280;45117;50.960;5.500;2023-04-24T12:01:14;99950.19;;;12.18
59339;BMP280;45117;50.960;5.500;2023-04-24T12:03:41;99961.06;;;12.15
59339;BMP280;45117;50.960;5.500;2023-04-24T12:06:11;99961.81;;;12.15
59339;BMP280;45117;50.960;5.500;2023-04-24T12:08:40;99955.63;;;12.31
59339;BMP280;45117;50.960;5.500;2023-04-24T12:11:07;99968.44;;;12.81
59339;BMP280;45117;50.960;5.500;2023-04-24T12:13:34;99961.53;;;13.44
59339;BMP280;45117;50.960;5.500;2023-04-24T12:16:02;99969.22;;;13.20
59339;BMP280;45117;50.960;5.500;2023-04-24T12:18:29;99972.44;;;13.02
59339;BMP280;45117;50.960;5.500;2023-04-24T12:20:55;99980.31;;;12.97
59339;BMP280;45117;50.960;5.500;2023-04-24T12:23:42;99982.03;;;12.90
59339;BMP280;45117;50.960;5.500;2023-04-24T12:26:09;99975.75;;;12.81
59339;BMP280;45117;50.960;5.500;2023-04-24T12:28:36;99982.44;;;13.14
59339;BMP280;45117;50.960;5.500;2023-04-24T12:31:03;99976.75;;;13.25
59339;BMP280;45117;50.960;5.500;2023-04-24T12:33:33;99982.44;;;12.76
59339;BMP280;45117;50.960;5.500;2023-04-24T12:36:00;99985.13;;;12.63
59339;BMP280;45117;50.960;5.500;2023-04-24T12:38:27;99991.97;;;12.52
59339;BMP280;45117;50.960;5.500;2023-04-24T12:41:03;99996.66;;;12.77
59339;BMP280;45117;50.960;5.500;2023-04-24T12:43:30;99999.44;;;12.73
59339;BMP280;45117;50.960;5.500;2023-04-24T12:45:57;100000.91;;;12.61
59339;BMP280;45117;50.960;5.500;2023-04-24T12:48:24;100000.13;;;12.90
59339;BMP280;45117;50.960;5.500;2023-04-24T12:50:51;100000.69;;;13.10
59339;BMP280;45117;50.960;5.500;2023-04-24T12:53:17;99996.03;;;13.11
59339;BMP280;45117;50.960;5.500;2023-04-24T12:55:44;100000.31;;;12.95
59339;BMP280;45117;50.960;5.500;2023-04-24T12:58:13;100008.63;;;12.76
59339;BMP280;45117;50.960;5.500;2023-04-24T13:00:39;100000.69;;;13.10
59339;BMP280;45117;50.960;5.500;2023-04-24T13:03:08;99996.44;;;13.47
59339;BMP280;45117;50.960;5.500;2023-04-24T13:05:34;100005.50;;;13.28
59339;BMP280;45117;50.960;5.500;2023-04-24T13:08:01;100009.28;;;13.56
59339;BMP280;45117;50.960;5.500;2023-04-24T13:10:28;100004.22;;;13.33
59339;BMP280;45117;50.960;5.500;2023-04-24T13:12:54;99997.88;;;13.14
59339;BMP280;45117;50.960;5.500;2023-04-24T13:15:22;100004.00;;;13.27
59339;BMP280;45117;50.960;5.500;2023-04-24T13:17:49;100002.81;;;13.41
59339;BMP280;45117;50.960;5.500;2023-04-24T13:20:15;100002.94;;;13.84
59339;BMP280;45117;50.960;5.500;2023-04-24T13:22:42;100008.84;;;13.92
59339;BMP280;45117;50.960;5.500;2023-04-24T13:25:09;100008.25;;;14.10
59339;BMP280;45117;50.960;5.500;2023-04-24T13:27:35;100008.38;;;14.28
59339;BMP280;45117;50.960;5.500;2023-04-24T13:30:02;100008.50;;;14.47
59339;BMP280;45117;50.960;5.500;2023-04-24T13:32:31;100013.13;;;14.15
59339;BMP280;45117;50.960;5.500;2023-04-24T13:34:58;100008.16;;;14.57
59339;BMP280;45117;50.960;5.500;2023-04-24T13:37:25;100006.72;;;14.43
59339;BMP280;45117;50.960;5.500;2023-04-24T13:39:52;100003.13;;;14.25
59339;BMP280;45117;50.960;5.500;2023-04-24T13:42:19;100008.69;;;14.52
59339;BMP280;45117;50.960;5.500;2023-04-24T13:44:46;99994.00;;;14.53
59339;BMP280;45117;50.960;5.500;2023-04-24T13:47:12;99998.56;;;14.65
59339;BMP280;45117;50.960;5.500;2023-04-24T13:49:40;100000.59;;;15.14
59339;BMP280;45117;50.960;5.500;2023-04-24T13:52:07;99993.34;;;15.11
59339;BMP280;45117;50.960;5.500;2023-04-24T13:54:35;99990.00;;;15.56
59339;BMP280;45117;50.960;5.500;2023-04-24T13:57:02;99998.00;;;15.69
59339;BMP280;45117;50.960;5.500;2023-04-24T13:59:29;99984.84;;;15.22
59339;BMP280;45117;50.960;5.500;2023-04-24T14:01:55;99987.84;;;15.24
59339;BMP280;45117;50.960;5.500;2023-04-24T14:04:22;99989.34;;;15.25
59339;BMP280;45117;50.960;5.500;2023-04-24T14:06:50;99984.28;;;15.54
59339;BMP280;45117;50.960;5.500;2023-04-24T14:09:16;99982.03;;;14.85
59339;BMP280;45117;50.960;5.500;2023-04-24T14:11:43;99988.09;;;15.08
59339;BMP280;45117;50.960;5.500;2023-04-24T14:14:09;99994.16;;;15.30
59339;BMP280;45117;50.960;5.500;2023-04-24T14:16:36;99986.03;;;15.21
59339;BMP280;45117;50.960;5.500;2023-04-24T14:19:03;99985.22;;;14.71